PWSweather.com
Personal Weather Stations
Station Observations
KD0MBL
Pueblo West, Pueblo West, CO 81007

Pueblo WestPueblo West, CO 81007

Lat: 38.380276, Lon: -104.7134279

Elevation: 5220

Station Type: Davis VantageVue

Latest ConditionsUpdated 5:41:14 PM MST Saturday, Nov 22, 2014
Currently Today's Max Today's Min Today's Average
Temperature 57.3°F14.1°C 63.5°F17.5°C 28.1°F-2.2°C 48.3°F9.1°C
Dew Point 15.3°F-9.3°C 23.3°F-4.8°C 10.4°F-12.0°C 17.0°F-8.3°C
Winds 16.0 mph W25.7 kmh W 26.0 mph W41.8 kmh W - 14.0 mph 22.5 kmh
Wind Gusts 22.0 mph35.4 kmh 41.0 mph66.0 kmh - -
Humidity 19% 72% 13% 34%
Pressure 29.61 in1002.7 mb 30.09 in1019.0 mb 29.60 in1002.4 mb -
Hour Temp Dew Point Humidity Winds Wind Gusts Pressure Precip Precip Rate Daily Precip Total
05:41 PM 57.3°F14.1°C 15.3°F-9.3°C 19% 16.0 mph W25.7 kmh W 22.0 mph35.4 kmh 29.61 in1002.7 mb 0.00 in0.0 mm 0.00 in/hr0.0 mm/hr 0.00 in0.0 mm
05:31 PM 57.0°F13.9°C 15.1°F-9.4°C 19% 11.0 mph WNW17.7 kmh WNW 18.0 mph29.0 kmh 29.61 in1002.7 mb 0.00 in0.0 mm 0.00 in/hr0.0 mm/hr 0.00 in0.0 mm
05:21 PM 57.4°F14.1°C 14.2°F-9.9°C 18% 9.0 mph WNW14.5 kmh WNW 16.0 mph25.7 kmh 29.61 in1002.7 mb 0.00 in0.0 mm 0.00 in/hr0.0 mm/hr 0.00 in0.0 mm
05:11 PM 57.7°F14.3°C 14.4°F-9.8°C 18% 9.0 mph WNW14.5 kmh WNW 15.0 mph24.1 kmh 29.61 in1002.7 mb 0.00 in0.0 mm 0.00 in/hr0.0 mm/hr 0.00 in0.0 mm
05:01 PM 58.1°F14.5°C 14.8°F-9.6°C 18% 10.0 mph NW16.1 kmh NW 19.0 mph30.6 kmh 29.61 in1002.7 mb 0.00 in0.0 mm 0.00 in/hr0.0 mm/hr 0.00 in0.0 mm
04:51 PM 59.3°F15.2°C 13.0°F-10.6°C 16% 12.0 mph WNW19.3 kmh WNW 18.0 mph29.0 kmh 29.61 in1002.7 mb 0.00 in0.0 mm 0.00 in/hr0.0 mm/hr 0.00 in0.0 mm
04:41 PM 59.5°F15.3°C 13.2°F-10.4°C 16% 16.0 mph W25.7 kmh W 23.0 mph37.0 kmh 29.61 in1002.7 mb 0.00 in0.0 mm 0.00 in/hr0.0 mm/hr 0.00 in0.0 mm
04:31 PM 59.9°F15.5°C 13.5°F-10.3°C 16% 20.0 mph W32.2 kmh W 30.0 mph48.3 kmh 29.61 in1002.7 mb 0.00 in0.0 mm 0.00 in/hr0.0 mm/hr 0.00 in0.0 mm
04:21 PM 60.4°F15.8°C 12.5°F-10.8°C 15% 18.0 mph W29.0 kmh W 27.0 mph43.5 kmh 29.61 in1002.7 mb 0.00 in0.0 mm 0.00 in/hr0.0 mm/hr 0.00 in0.0 mm
04:11 PM 60.7°F15.9°C 12.7°F-10.7°C 15% 15.0 mph W24.1 kmh W 26.0 mph41.8 kmh 29.60 in1002.4 mb 0.00 in0.0 mm 0.00 in/hr0.0 mm/hr 0.00 in0.0 mm
04:01 PM 60.5°F15.8°C 12.5°F-10.8°C 15% 14.0 mph W22.5 kmh W 22.0 mph35.4 kmh 29.61 in1002.7 mb 0.00 in0.0 mm 0.00 in/hr0.0 mm/hr 0.00 in0.0 mm
03:51 PM 60.5°F15.8°C 12.5°F-10.8°C 15% 17.0 mph W27.4 kmh W 26.0 mph41.8 kmh 29.62 in1003.0 mb 0.00 in0.0 mm 0.00 in/hr0.0 mm/hr 0.00 in0.0 mm
03:41 PM 61.0°F16.1°C 11.4°F-11.4°C 14% 19.0 mph W30.6 kmh W 32.0 mph51.5 kmh 29.62 in1003.0 mb 0.00 in0.0 mm 0.00 in/hr0.0 mm/hr 0.00 in0.0 mm
03:31 PM 61.3°F16.3°C 11.6°F-11.3°C 14% 17.0 mph W27.4 kmh W 25.0 mph40.2 kmh 29.62 in1003.0 mb 0.00 in0.0 mm 0.00 in/hr0.0 mm/hr 0.00 in0.0 mm
03:21 PM 61.9°F16.6°C 10.4°F-12.0°C 13% 17.0 mph W27.4 kmh W 24.0 mph38.6 kmh 29.62 in1003.0 mb 0.00 in0.0 mm 0.00 in/hr0.0 mm/hr 0.00 in0.0 mm
03:11 PM 61.9°F16.6°C 12.1°F-11.1°C 14% 16.0 mph WSW25.7 kmh WSW 23.0 mph37.0 kmh 29.62 in1003.0 mb 0.00 in0.0 mm 0.00 in/hr0.0 mm/hr 0.00 in0.0 mm
03:01 PM 61.8°F16.6°C 13.6°F-10.2°C 15% 15.0 mph WSW24.1 kmh WSW 21.0 mph33.8 kmh 29.62 in1003.0 mb 0.00 in0.0 mm 0.00 in/hr0.0 mm/hr 0.00 in0.0 mm
02:51 PM 62.2°F16.8°C 13.9°F-10.1°C 15% 16.0 mph WSW25.7 kmh WSW 24.0 mph38.6 kmh 29.63 in1003.4 mb 0.00 in0.0 mm 0.00 in/hr0.0 mm/hr 0.00 in0.0 mm
02:41 PM 62.9°F17.2°C 12.9°F-10.6°C 14% 19.0 mph WSW30.6 kmh WSW 28.0 mph45.1 kmh 29.63 in1003.4 mb 0.00 in0.0 mm 0.00 in/hr0.0 mm/hr 0.00 in0.0 mm
02:31 PM 62.8°F17.1°C 12.8°F-10.7°C 14% 19.0 mph WSW30.6 kmh WSW 29.0 mph46.7 kmh 29.62 in1003.0 mb 0.00 in0.0 mm 0.00 in/hr0.0 mm/hr 0.00 in0.0 mm
02:21 PM 62.8°F17.1°C 11.1°F-11.6°C 13% 20.0 mph W32.2 kmh W 30.0 mph48.3 kmh 29.63 in1003.4 mb 0.00 in0.0 mm 0.00 in/hr0.0 mm/hr 0.00 in0.0 mm
02:11 PM 62.9°F17.2°C 11.2°F-11.6°C 13% 17.0 mph W27.4 kmh W 29.0 mph46.7 kmh 29.64 in1003.7 mb 0.00 in0.0 mm 0.00 in/hr0.0 mm/hr 0.00 in0.0 mm
02:01 PM 63.2°F17.3°C 11.5°F-11.4°C 13% 20.0 mph W32.2 kmh W 29.0 mph46.7 kmh 29.65 in1004.1 mb 0.00 in0.0 mm 0.00 in/hr0.0 mm/hr 0.00 in0.0 mm
01:51 PM 63.5°F17.5°C 11.7°F-11.3°C 13% 21.0 mph W33.8 kmh W 32.0 mph51.5 kmh 29.65 in1004.1 mb 0.00 in0.0 mm 0.00 in/hr0.0 mm/hr 0.00 in0.0 mm
01:41 PM 63.3°F17.4°C 11.5°F-11.4°C 13% 22.0 mph W35.4 kmh W 32.0 mph51.5 kmh 29.65 in1004.1 mb 0.00 in0.0 mm 0.00 in/hr0.0 mm/hr 0.00 in0.0 mm
01:31 PM 63.3°F17.4°C 11.5°F-11.4°C 13% 24.0 mph W38.6 kmh W 36.0 mph57.9 kmh 29.65 in1004.1 mb 0.00 in0.0 mm 0.00 in/hr0.0 mm/hr 0.00 in0.0 mm
01:21 PM 63.2°F17.3°C 11.5°F-11.4°C 13% 23.0 mph W37.0 kmh W 33.0 mph53.1 kmh 29.66 in1004.4 mb 0.00 in0.0 mm 0.00 in/hr0.0 mm/hr 0.00 in0.0 mm
01:11 PM 63.0°F17.2°C 13.0°F-10.6°C 14% 24.0 mph W38.6 kmh W 36.0 mph57.9 kmh 29.66 in1004.4 mb 0.00 in0.0 mm 0.00 in/hr0.0 mm/hr 0.00 in0.0 mm
01:01 PM 62.7°F17.1°C 12.7°F-10.7°C 14% 22.0 mph W35.4 kmh W 33.0 mph53.1 kmh 29.68 in1005.1 mb 0.00 in0.0 mm 0.00 in/hr0.0 mm/hr 0.00 in0.0 mm
12:51 PM 62.7°F17.1°C 14.3°F-9.8°C 15% 18.0 mph W29.0 kmh W 27.0 mph43.5 kmh 29.69 in1005.4 mb 0.00 in0.0 mm 0.00 in/hr0.0 mm/hr 0.00 in0.0 mm
12:41 PM 62.4°F16.9°C 12.5°F-10.8°C 14% 20.0 mph W32.2 kmh W 31.0 mph49.9 kmh 29.69 in1005.4 mb 0.00 in0.0 mm 0.00 in/hr0.0 mm/hr 0.00 in0.0 mm
12:31 PM 61.8°F16.6°C 13.6°F-10.2°C 15% 19.0 mph W30.6 kmh W 27.0 mph43.5 kmh 29.70 in1005.8 mb 0.00 in0.0 mm 0.00 in/hr0.0 mm/hr 0.00 in0.0 mm
12:21 PM 61.5°F16.4°C 14.8°F-9.6°C 16% 23.0 mph W37.0 kmh W 31.0 mph49.9 kmh 29.72 in1006.4 mb 0.00 in0.0 mm 0.00 in/hr0.0 mm/hr 0.00 in0.0 mm
12:11 PM 61.6°F16.4°C 14.9°F-9.5°C 16% 22.0 mph W35.4 kmh W 31.0 mph49.9 kmh 29.72 in1006.4 mb 0.00 in0.0 mm 0.00 in/hr0.0 mm/hr 0.00 in0.0 mm
12:01 PM 61.3°F16.3°C 14.7°F-9.6°C 16% 24.0 mph W38.6 kmh W 39.0 mph62.8 kmh 29.73 in1006.8 mb 0.00 in0.0 mm 0.00 in/hr0.0 mm/hr 0.00 in0.0 mm
11:51 AM 61.1°F16.2°C 14.5°F-9.7°C 16% 25.0 mph W40.2 kmh W 41.0 mph66.0 kmh 29.74 in1007.1 mb 0.00 in0.0 mm 0.00 in/hr0.0 mm/hr 0.00 in0.0 mm
11:41 AM 60.7°F15.9°C 15.6°F-9.1°C 17% 26.0 mph W41.8 kmh W 37.0 mph59.5 kmh 29.75 in1007.5 mb 0.00 in0.0 mm 0.00 in/hr0.0 mm/hr 0.00 in0.0 mm
11:31 AM 60.8°F16.0°C 14.3°F-9.8°C 16% 24.0 mph W38.6 kmh W 38.0 mph61.2 kmh 29.76 in1007.8 mb 0.00 in0.0 mm 0.00 in/hr0.0 mm/hr 0.00 in0.0 mm
11:21 AM 60.0°F15.6°C 16.3°F-8.7°C 18% 21.0 mph W33.8 kmh W 32.0 mph51.5 kmh 29.77 in1008.1 mb 0.00 in0.0 mm 0.00 in/hr0.0 mm/hr 0.00 in0.0 mm
11:11 AM 59.3°F15.2°C 15.7°F-9.1°C 18% 22.0 mph W35.4 kmh W 33.0 mph53.1 kmh 29.78 in1008.5 mb 0.00 in0.0 mm 0.00 in/hr0.0 mm/hr 0.00 in0.0 mm
11:01 AM 59.2°F15.1°C 15.7°F-9.1°C 18% 23.0 mph W37.0 kmh W 34.0 mph54.7 kmh 29.79 in1008.8 mb 0.00 in0.0 mm 0.00 in/hr0.0 mm/hr 0.00 in0.0 mm
10:51 AM 58.4°F14.7°C 16.2°F-8.8°C 19% 24.0 mph W38.6 kmh W 34.0 mph54.7 kmh 29.79 in1008.8 mb 0.00 in0.0 mm 0.00 in/hr0.0 mm/hr 0.00 in0.0 mm
10:41 AM 57.3°F14.1°C 17.6°F-8.0°C 21% 21.0 mph W33.8 kmh W 31.0 mph49.9 kmh 29.80 in1009.1 mb 0.00 in0.0 mm 0.00 in/hr0.0 mm/hr 0.00 in0.0 mm
10:31 AM 56.8°F13.8°C 18.3°F-7.6°C 22% 20.0 mph W32.2 kmh W 30.0 mph48.3 kmh 29.82 in1009.8 mb 0.00 in0.0 mm 0.00 in/hr0.0 mm/hr 0.00 in0.0 mm
10:21 AM 56.2°F13.4°C 17.8°F-7.9°C 22% 21.0 mph W33.8 kmh W 29.0 mph46.7 kmh 29.84 in1010.5 mb 0.00 in0.0 mm 0.00 in/hr0.0 mm/hr 0.00 in0.0 mm
10:11 AM 55.6°F13.1°C 17.3°F-8.2°C 22% 22.0 mph W35.4 kmh W 34.0 mph54.7 kmh 29.85 in1010.8 mb 0.00 in0.0 mm 0.00 in/hr0.0 mm/hr 0.00 in0.0 mm
10:01 AM 54.8°F12.7°C 17.7°F-7.9°C 23% 23.0 mph W37.0 kmh W 32.0 mph51.5 kmh 29.86 in1011.2 mb 0.00 in0.0 mm 0.00 in/hr0.0 mm/hr 0.00 in0.0 mm
09:51 AM 54.1°F12.3°C 18.1°F-7.7°C 24% 18.0 mph W29.0 kmh W 27.0 mph43.5 kmh 29.87 in1011.5 mb 0.00 in0.0 mm 0.00 in/hr0.0 mm/hr 0.00 in0.0 mm
09:41 AM 53.7°F12.1°C 18.7°F-7.4°C 25% 16.0 mph W25.7 kmh W 27.0 mph43.5 kmh 29.88 in1011.9 mb 0.00 in0.0 mm 0.00 in/hr0.0 mm/hr 0.00 in0.0 mm
09:31 AM 53.2°F11.8°C 17.3°F-8.2°C 24% 20.0 mph W32.2 kmh W 27.0 mph43.5 kmh 29.89 in1012.2 mb 0.00 in0.0 mm 0.00 in/hr0.0 mm/hr 0.00 in0.0 mm
09:21 AM 53.1°F11.7°C 18.2°F-7.7°C 25% 21.0 mph W33.8 kmh W 30.0 mph48.3 kmh 29.89 in1012.2 mb 0.00 in0.0 mm 0.00 in/hr0.0 mm/hr 0.00 in0.0 mm
09:11 AM 52.5°F11.4°C 17.6°F-8.0°C 25% 22.0 mph W35.4 kmh W 32.0 mph51.5 kmh 29.90 in1012.5 mb 0.00 in0.0 mm 0.00 in/hr0.0 mm/hr 0.00 in0.0 mm
09:01 AM 51.7°F10.9°C 17.9°F-7.8°C 26% 20.0 mph W32.2 kmh W 30.0 mph48.3 kmh 29.90 in1012.5 mb 0.00 in0.0 mm 0.00 in/hr0.0 mm/hr 0.00 in0.0 mm
08:51 AM 50.4°F10.2°C 18.5°F-7.5°C 28% 19.0 mph W30.6 kmh W 28.0 mph45.1 kmh 29.91 in1012.9 mb 0.00 in0.0 mm 0.00 in/hr0.0 mm/hr 0.00 in0.0 mm
08:41 AM 50.1°F10.1°C 19.0°F-7.2°C 29% 19.0 mph W30.6 kmh W 27.0 mph43.5 kmh 29.92 in1013.2 mb 0.00 in0.0 mm 0.00 in/hr0.0 mm/hr 0.00 in0.0 mm
08:31 AM 49.5°F9.7°C 18.5°F-7.5°C 29% 16.0 mph W25.7 kmh W 26.0 mph41.8 kmh 29.91 in1012.9 mb 0.00 in0.0 mm 0.00 in/hr0.0 mm/hr 0.00 in0.0 mm
08:21 AM 47.6°F8.7°C 19.9°F-6.7°C 33% 14.0 mph W22.5 kmh W 20.0 mph32.2 kmh 29.92 in1013.2 mb 0.00 in0.0 mm 0.00 in/hr0.0 mm/hr 0.00 in0.0 mm
08:11 AM 46.0°F7.8°C 19.8°F-6.8°C 35% 15.0 mph W24.1 kmh W 24.0 mph38.6 kmh 29.92 in1013.2 mb 0.00 in0.0 mm 0.00 in/hr0.0 mm/hr 0.00 in0.0 mm
08:01 AM 43.6°F6.4°C 19.6°F-6.9°C 38% 15.0 mph W24.1 kmh W 23.0 mph37.0 kmh 29.93 in1013.5 mb 0.00 in0.0 mm 0.00 in/hr0.0 mm/hr 0.00 in0.0 mm
07:51 AM 42.4°F5.8°C 19.8°F-6.8°C 40% 10.0 mph WSW16.1 kmh WSW 17.0 mph27.4 kmh 29.94 in1013.9 mb 0.00 in0.0 mm 0.00 in/hr0.0 mm/hr 0.00 in0.0 mm
07:41 AM 42.5°F5.8°C 19.8°F-6.8°C 40% 13.0 mph WSW20.9 kmh WSW 17.0 mph27.4 kmh 29.94 in1013.9 mb 0.00 in0.0 mm 0.00 in/hr0.0 mm/hr 0.00 in0.0 mm
07:31 AM 42.6°F5.9°C 19.3°F-7.1°C 39% 16.0 mph W25.7 kmh W 24.0 mph38.6 kmh 29.94 in1013.9 mb 0.00 in0.0 mm 0.00 in/hr0.0 mm/hr 0.00 in0.0 mm
07:21 AM 42.1°F5.6°C 18.9°F-7.3°C 39% 14.0 mph W22.5 kmh W 20.0 mph32.2 kmh 29.95 in1014.2 mb 0.00 in0.0 mm 0.00 in/hr0.0 mm/hr 0.00 in0.0 mm
07:11 AM 41.7°F5.4°C 18.5°F-7.5°C 39% 16.0 mph W25.7 kmh W 21.0 mph33.8 kmh 29.95 in1014.2 mb 0.00 in0.0 mm 0.00 in/hr0.0 mm/hr 0.00 in0.0 mm
07:01 AM 42.2°F5.7°C 18.4°F-7.6°C 38% 16.0 mph W25.7 kmh W 22.0 mph35.4 kmh 29.95 in1014.2 mb 0.00 in0.0 mm 0.00 in/hr0.0 mm/hr 0.00 in0.0 mm
06:51 AM 42.4°F5.8°C 18.6°F-7.4°C 38% 13.0 mph W20.9 kmh W 18.0 mph29.0 kmh 29.95 in1014.2 mb 0.00 in0.0 mm 0.00 in/hr0.0 mm/hr 0.00 in0.0 mm
06:41 AM 42.4°F5.8°C 18.6°F-7.4°C 38% 13.0 mph W20.9 kmh W 18.0 mph29.0 kmh 29.96 in1014.6 mb 0.00 in0.0 mm 0.00 in/hr0.0 mm/hr 0.00 in0.0 mm
06:31 AM 42.2°F5.7°C 18.4°F-7.6°C 38% 12.0 mph W19.3 kmh W 17.0 mph27.4 kmh 29.97 in1014.9 mb 0.00 in0.0 mm 0.00 in/hr0.0 mm/hr 0.00 in0.0 mm
06:21 AM 43.0°F6.1°C 18.5°F-7.5°C 37% 13.0 mph W20.9 kmh W 19.0 mph30.6 kmh 29.98 in1015.2 mb 0.00 in0.0 mm 0.00 in/hr0.0 mm/hr 0.00 in0.0 mm
06:11 AM 42.9°F6.1°C 18.4°F-7.6°C 37% 15.0 mph W24.1 kmh W 23.0 mph37.0 kmh 29.98 in1015.2 mb 0.00 in0.0 mm 0.00 in/hr0.0 mm/hr 0.00 in0.0 mm
06:01 AM 42.1°F5.6°C 18.9°F-7.3°C 39% 11.0 mph W17.7 kmh W 20.0 mph32.2 kmh 29.99 in1015.6 mb 0.00 in0.0 mm 0.00 in/hr0.0 mm/hr 0.00 in0.0 mm
05:51 AM 42.1°F5.6°C 19.5°F-6.9°C 40% 11.0 mph W17.7 kmh W 19.0 mph30.6 kmh 30.00 in1015.9 mb 0.00 in0.0 mm 0.00 in/hr0.0 mm/hr 0.00 in0.0 mm
05:41 AM 41.7°F5.4°C 19.7°F-6.8°C 41% 9.0 mph W14.5 kmh W 13.0 mph20.9 kmh 30.00 in1015.9 mb 0.00 in0.0 mm 0.00 in/hr0.0 mm/hr 0.00 in0.0 mm
05:31 AM 40.8°F4.9°C 19.5°F-6.9°C 42% 10.0 mph WNW16.1 kmh WNW 16.0 mph25.7 kmh 30.01 in1016.3 mb 0.00 in0.0 mm 0.00 in/hr0.0 mm/hr 0.00 in0.0 mm
05:21 AM 39.5°F4.2°C 19.4°F-7.0°C 44% 10.0 mph WNW16.1 kmh WNW 15.0 mph24.1 kmh 30.01 in1016.3 mb 0.00 in0.0 mm 0.00 in/hr0.0 mm/hr 0.00 in0.0 mm
05:11 AM 37.6°F3.1°C 18.7°F-7.4°C 46% 11.0 mph WNW17.7 kmh WNW 14.0 mph22.5 kmh 30.01 in1016.3 mb 0.00 in0.0 mm 0.00 in/hr0.0 mm/hr 0.00 in0.0 mm
05:01 AM 36.6°F2.6°C 18.2°F-7.7°C 47% 9.0 mph WNW14.5 kmh WNW 14.0 mph22.5 kmh 30.02 in1016.6 mb 0.00 in0.0 mm 0.00 in/hr0.0 mm/hr 0.00 in0.0 mm
04:51 AM 36.7°F2.6°C 18.8°F-7.3°C 48% 8.0 mph W12.9 kmh W 13.0 mph20.9 kmh 30.02 in1016.6 mb 0.00 in0.0 mm 0.00 in/hr0.0 mm/hr 0.00 in0.0 mm
04:41 AM 37.5°F3.1°C 19.1°F-7.2°C 47% 9.0 mph W14.5 kmh W 12.0 mph19.3 kmh 30.02 in1016.6 mb 0.00 in0.0 mm 0.00 in/hr0.0 mm/hr 0.00 in0.0 mm
04:31 AM 37.2°F2.9°C 19.8°F-6.8°C 49% 9.0 mph W14.5 kmh W 13.0 mph20.9 kmh 30.03 in1016.9 mb 0.00 in0.0 mm 0.00 in/hr0.0 mm/hr 0.00 in0.0 mm
04:21 AM 33.9°F1.1°C 19.4°F-7.0°C 55% 5.0 mph W8.0 kmh W 8.0 mph12.9 kmh 30.04 in1017.3 mb 0.00 in0.0 mm 0.00 in/hr0.0 mm/hr 0.00 in0.0 mm
04:11 AM 32.6°F0.3°C 19.8°F-6.8°C 59% 3.0 mph W4.8 kmh W 5.0 mph8.0 kmh 30.04 in1017.3 mb 0.00 in0.0 mm 0.00 in/hr0.0 mm/hr 0.00 in0.0 mm
04:01 AM 29.2°F-1.6°C 20.3°F-6.5°C 69% 1.0 mph W1.6 kmh W 4.0 mph6.4 kmh 30.05 in1017.6 mb 0.00 in0.0 mm 0.00 in/hr0.0 mm/hr 0.00 in0.0 mm
03:51 AM 28.8°F-1.8°C 20.2°F-6.6°C 70% 1.0 mph NW1.6 kmh NW 3.0 mph4.8 kmh 30.05 in1017.6 mb 0.00 in0.0 mm 0.00 in/hr0.0 mm/hr 0.00 in0.0 mm
03:41 AM 28.3°F-2.1°C 20.4°F-6.4°C 72% 3.0 mph NNE4.8 kmh NNE 3.0 mph4.8 kmh 30.05 in1017.6 mb 0.00 in0.0 mm 0.00 in/hr0.0 mm/hr 0.00 in0.0 mm
03:31 AM 28.1°F-2.2°C 19.9°F-6.7°C 71% 3.0 mph NNE4.8 kmh NNE 5.0 mph8.0 kmh 30.06 in1017.9 mb 0.00 in0.0 mm 0.00 in/hr0.0 mm/hr 0.00 in0.0 mm
03:21 AM 29.5°F-1.4°C 20.2°F-6.6°C 68% 4.0 mph NNW6.4 kmh NNW 5.0 mph8.0 kmh 30.06 in1017.9 mb 0.00 in0.0 mm 0.00 in/hr0.0 mm/hr 0.00 in0.0 mm
03:11 AM 28.7°F-1.8°C 20.5°F-6.4°C 71% 3.0 mph NW4.8 kmh NW 5.0 mph8.0 kmh 30.06 in1017.9 mb 0.00 in0.0 mm 0.00 in/hr0.0 mm/hr 0.00 in0.0 mm
03:01 AM 28.7°F-1.8°C 18.8°F-7.3°C 66% 3.0 mph NNE4.8 kmh NNE 4.0 mph6.4 kmh 30.07 in1018.3 mb 0.00 in0.0 mm 0.00 in/hr0.0 mm/hr 0.00 in0.0 mm
02:51 AM 32.7°F0.4°C 18.7°F-7.4°C 56% 3.0 mph NW4.8 kmh NW 6.0 mph9.7 kmh 30.07 in1018.3 mb 0.00 in0.0 mm 0.00 in/hr0.0 mm/hr 0.00 in0.0 mm
02:41 AM 32.7°F0.4°C 19.1°F-7.2°C 57% 6.0 mph W9.7 kmh W 10.0 mph16.1 kmh 30.07 in1018.3 mb 0.00 in0.0 mm 0.00 in/hr0.0 mm/hr 0.00 in0.0 mm
02:31 AM 31.3°F-0.4°C 19.0°F-7.2°C 60% 8.0 mph WSW12.9 kmh WSW 11.0 mph17.7 kmh 30.07 in1018.3 mb 0.00 in0.0 mm 0.00 in/hr0.0 mm/hr 0.00 in0.0 mm
02:21 AM 31.0°F-0.6°C 18.7°F-7.4°C 60% 8.0 mph WSW12.9 kmh WSW 10.0 mph16.1 kmh 30.07 in1018.3 mb 0.00 in0.0 mm 0.00 in/hr0.0 mm/hr 0.00 in0.0 mm
02:11 AM 32.5°F0.3°C 19.3°F-7.1°C 58% 8.0 mph WSW12.9 kmh WSW 11.0 mph17.7 kmh 30.07 in1018.3 mb 0.00 in0.0 mm 0.00 in/hr0.0 mm/hr 0.00 in0.0 mm
02:01 AM 33.0°F0.6°C 19.4°F-7.0°C 57% 8.0 mph W12.9 kmh W 10.0 mph16.1 kmh 30.07 in1018.3 mb 0.00 in0.0 mm 0.00 in/hr0.0 mm/hr 0.00 in0.0 mm
01:51 AM 32.1°F0.1°C 19.8°F-6.8°C 60% 8.0 mph W12.9 kmh W 12.0 mph19.3 kmh 30.07 in1018.3 mb 0.00 in0.0 mm 0.00 in/hr0.0 mm/hr 0.00 in0.0 mm
01:41 AM 32.2°F0.1°C 19.9°F-6.7°C 60% 9.0 mph WSW14.5 kmh WSW 13.0 mph20.9 kmh 30.07 in1018.3 mb 0.00 in0.0 mm 0.00 in/hr0.0 mm/hr 0.00 in0.0 mm
01:31 AM 31.4°F-0.3°C 20.2°F-6.6°C 63% 8.0 mph WSW12.9 kmh WSW 11.0 mph17.7 kmh 30.08 in1018.6 mb 0.00 in0.0 mm 0.00 in/hr0.0 mm/hr 0.00 in0.0 mm
01:21 AM 29.8°F-1.2°C 20.2°F-6.6°C 67% 7.0 mph SW11.3 kmh SW 11.0 mph17.7 kmh 30.08 in1018.6 mb 0.00 in0.0 mm 0.00 in/hr0.0 mm/hr 0.00 in0.0 mm
01:11 AM 29.9°F-1.2°C 19.9°F-6.7°C 66% 6.0 mph WSW9.7 kmh WSW 7.0 mph11.3 kmh 30.08 in1018.6 mb 0.00 in0.0 mm 0.00 in/hr0.0 mm/hr 0.00 in0.0 mm
01:01 AM 31.3°F-0.4°C 20.2°F-6.6°C 63% 6.0 mph WSW9.7 kmh WSW 7.0 mph11.3 kmh 30.08 in1018.6 mb 0.00 in0.0 mm 0.00 in/hr0.0 mm/hr 0.00 in0.0 mm
12:51 AM 32.0°F0.0°C 20.4°F-6.4°C 62% 7.0 mph SW11.3 kmh SW 9.0 mph14.5 kmh 30.08 in1018.6 mb 0.00 in0.0 mm 0.00 in/hr0.0 mm/hr 0.00 in0.0 mm
12:41 AM 34.3°F1.3°C 20.2°F-6.6°C 56% 7.0 mph SW11.3 kmh SW 9.0 mph14.5 kmh 30.09 in1019.0 mb 0.00 in0.0 mm 0.00 in/hr0.0 mm/hr 0.00 in0.0 mm
12:31 AM 35.8°F2.1°C 20.8°F-6.2°C 54% 6.0 mph WSW9.7 kmh WSW 7.0 mph11.3 kmh 30.09 in1019.0 mb 0.00 in0.0 mm 0.00 in/hr0.0 mm/hr 0.00 in0.0 mm
12:21 AM 36.1°F2.3°C 21.5°F-5.8°C 55% 4.0 mph SW6.4 kmh SW 5.0 mph8.0 kmh 30.09 in1019.0 mb 0.00 in0.0 mm 0.00 in/hr0.0 mm/hr 0.00 in0.0 mm
12:11 AM 37.5°F3.1°C 22.3°F-5.4°C 54% 1.0 mph W1.6 kmh W 3.0 mph4.8 kmh 30.09 in1019.0 mb 0.00 in0.0 mm 0.00 in/hr0.0 mm/hr 0.00 in0.0 mm
12:01 AM 35.8°F2.1°C 23.3°F-4.8°C 60% 2.0 mph WSW3.2 kmh WSW 4.0 mph6.4 kmh 30.09 in1019.0 mb 0.00 in0.0 mm 0.00 in/hr0.0 mm/hr 0.00 in0.0 mm